createdAt,value
2024-04-08T15:35:16.709Z,52.30
2024-04-08T15:37:48.988Z,51.60
2024-04-08T15:40:24.046Z,50.10
2024-04-08T15:42:55.884Z,51.00
2024-04-08T15:45:27.882Z,52.30
2024-04-08T15:48:00.027Z,51.40
2024-04-08T15:50:32.112Z,51.00
2024-04-08T15:53:04.022Z,51.80
2024-04-08T15:55:41.303Z,53.40
2024-04-08T15:58:13.512Z,50.70
2024-04-08T16:00:46.445Z,50.20
2024-04-08T16:03:18.458Z,53.60
2024-04-08T16:05:50.531Z,53.30
2024-04-08T16:08:22.470Z,53.40
2024-04-08T16:10:54.277Z,56.10
2024-04-08T16:13:26.184Z,52.60
2024-04-08T16:15:58.460Z,54.80
2024-04-08T16:18:30.814Z,54.30
2024-04-08T16:21:05.139Z,56.80
2024-04-08T16:26:12.674Z,53.90
2024-04-08T16:28:44.648Z,56.60
2024-04-08T16:31:16.498Z,58.40
2024-04-08T16:33:48.438Z,62.00
2024-04-08T16:36:20.349Z,61.20
2024-04-08T16:38:52.212Z,64.90
2024-04-08T16:41:24.123Z,62.60
2024-04-08T16:43:56.118Z,62.80
2024-04-08T16:46:28.603Z,63.10
2024-04-08T16:49:00.621Z,58.70
2024-04-08T16:51:33.160Z,61.40
2024-04-08T16:54:05.690Z,69.70
2024-04-08T16:56:37.748Z,69.50
2024-04-08T16:59:09.663Z,72.30
2024-04-08T17:01:41.475Z,73.00
2024-04-08T17:04:14.845Z,73.90
2024-04-08T17:06:52.375Z,75.30
2024-04-08T17:09:27.246Z,75.90
2024-04-08T17:11:59.183Z,76.20
2024-04-08T17:14:31.047Z,77.30
2024-04-08T17:17:02.990Z,78.80
2024-04-08T17:19:34.863Z,79.80
2024-04-08T17:22:06.698Z,74.00
2024-04-08T17:24:41.054Z,83.00
2024-04-08T17:27:13.101Z,83.20
2024-04-08T17:29:48.072Z,83.90
2024-04-08T17:32:20.070Z,86.20
2024-04-08T17:34:53.816Z,89.20
2024-04-08T17:37:25.711Z,89.10
2024-04-08T17:39:57.725Z,88.20
2024-04-08T17:42:39.653Z,90.10
2024-04-08T17:45:16.669Z,88.70
2024-04-08T17:47:48.603Z,90.50
2024-04-08T17:50:20.946Z,90.80
2024-04-08T17:52:55.005Z,92.20
2024-04-08T17:55:27.480Z,92.00
2024-04-08T17:57:59.296Z,93.30
2024-04-08T18:00:31.560Z,93.90
2024-04-08T18:03:03.790Z,95.20
2024-04-08T18:05:36.270Z,95.00
2024-04-08T18:08:08.111Z,95.30
2024-04-08T18:10:41.735Z,95.80
2024-04-08T18:13:13.749Z,96.30
2024-04-08T18:15:45.710Z,95.00
2024-04-08T18:18:17.586Z,95.30
2024-04-08T18:21:00.179Z,95.50
2024-04-08T18:23:33.077Z,96.50
2024-04-08T18:26:07.573Z,96.20
2024-04-08T18:28:41.578Z,96.30
2024-04-08T18:31:15.393Z,95.80
2024-04-08T18:33:49.637Z,95.40
2024-04-08T18:36:21.650Z,95.50
2024-04-08T18:38:53.752Z,95.90
2024-04-08T18:41:25.752Z,97.00
2024-04-08T18:43:57.598Z,95.80
2024-04-08T18:46:29.444Z,97.30
2024-04-08T18:49:01.343Z,96.90
2024-04-08T18:51:33.667Z,96.50
2024-04-08T18:54:05.643Z,97.20
2024-04-08T18:56:37.458Z,97.20
2024-04-08T18:59:09.278Z,97.20
2024-04-08T19:01:41.120Z,97.90
2024-04-08T19:04:13.141Z,98.80
2024-04-08T19:06:45.103Z,98.50
2024-04-08T19:09:17.021Z,98.20
2024-04-08T19:11:53.072Z,98.50
2024-04-08T19:14:25.455Z,98.50
2024-04-08T19:16:58.463Z,98.60
2024-04-08T19:19:30.691Z,99.10
2024-04-08T19:22:02.645Z,99.80
2024-04-08T19:24:34.573Z,99.20
2024-04-08T19:27:06.521Z,99.80
2024-04-08T19:29:38.350Z,99.40
2024-04-08T19:32:10.309Z,99.90
2024-04-08T19:34:42.233Z,99.90
2024-04-08T19:37:14.043Z,99.90
2024-04-08T19:39:49.500Z,99.90
2024-04-08T19:42:21.380Z,99.90
2024-04-08T19:44:56.075Z,99.90
2024-04-08T19:47:29.607Z,99.90
2024-04-08T19:50:03.724Z,99.90
2024-04-08T19:52:35.855Z,99.90
2024-04-08T19:55:07.980Z,99.90
2024-04-08T19:57:39.899Z,99.90
2024-04-08T20:00:12.264Z,99.90
2024-04-08T20:02:44.221Z,99.90
2024-04-08T20:05:18.693Z,99.90
2024-04-08T20:07:50.802Z,99.90
2024-04-08T20:10:22.690Z,99.90
2024-04-08T20:12:54.578Z,99.90
2024-04-08T20:15:26.567Z,99.90
2024-04-08T20:17:59.085Z,99.90
2024-04-08T20:20:31.204Z,99.90
2024-04-08T20:23:03.321Z,99.90
2024-04-08T20:25:35.283Z,99.90
2024-04-08T20:28:08.968Z,99.90
2024-04-08T20:30:42.259Z,99.90
2024-04-08T20:33:14.134Z,99.90
2024-04-08T20:36:01.253Z,99.90
2024-04-08T20:38:34.733Z,99.90
2024-04-08T20:41:08.297Z,99.90
2024-04-08T20:43:41.500Z,99.90
2024-04-08T20:46:13.594Z,99.90
2024-04-08T20:48:46.347Z,99.90
2024-04-08T20:51:18.444Z,99.90
2024-04-08T20:53:50.637Z,99.90
2024-04-08T20:56:22.497Z,99.90
2024-04-08T20:58:54.429Z,99.90
2024-04-08T21:01:26.290Z,99.90
2024-04-08T21:03:58.418Z,99.90
2024-04-08T21:06:30.371Z,99.90
2024-04-08T21:09:02.331Z,99.90
2024-04-08T21:11:34.207Z,99.90
2024-04-08T21:14:07.518Z,99.90
2024-04-08T21:16:39.977Z,99.90
2024-04-08T21:19:13.625Z,99.90
2024-04-08T21:21:45.569Z,99.90
2024-04-08T21:24:17.600Z,99.90
2024-04-08T21:26:49.538Z,99.90
2024-04-08T21:29:21.762Z,99.90
2024-04-08T21:31:53.747Z,99.90
2024-04-08T21:34:26.648Z,99.90
2024-04-08T21:36:58.607Z,99.90
2024-04-08T21:39:30.763Z,99.90
2024-04-08T21:42:02.718Z,99.90
2024-04-08T21:44:34.618Z,99.90
2024-04-08T21:47:06.696Z,99.90
2024-04-08T21:49:38.700Z,99.90
2024-04-08T21:52:10.716Z,99.90
2024-04-08T21:54:42.714Z,99.90
2024-04-08T21:57:14.647Z,99.90
2024-04-08T21:59:47.919Z,99.90
2024-04-08T22:02:19.763Z,99.90
2024-04-08T22:04:52.320Z,99.90
2024-04-08T22:07:24.871Z,99.90
2024-04-08T22:09:56.740Z,99.90
2024-04-08T22:12:28.702Z,99.90
2024-04-08T22:15:00.652Z,99.90
2024-04-08T22:17:32.561Z,99.90
2024-04-08T22:20:05.894Z,99.90
2024-04-08T22:22:37.804Z,99.90
2024-04-08T22:25:09.599Z,99.90
2024-04-08T22:27:41.953Z,99.90
2024-04-08T22:30:14.070Z,99.90
2024-04-08T22:32:46.017Z,99.90
2024-04-08T22:35:17.896Z,99.90
2024-04-08T22:37:50.532Z,99.90
2024-04-08T22:40:22.633Z,99.90
2024-04-08T22:42:54.568Z,99.90
2024-04-08T22:45:26.725Z,99.90
2024-04-08T22:47:58.968Z,99.90
2024-04-08T22:50:30.949Z,99.90
2024-04-08T22:53:02.878Z,99.90
2024-04-08T22:55:34.807Z,99.90
2024-04-08T22:58:06.725Z,99.90
2024-04-08T23:00:38.823Z,99.90
2024-04-08T23:03:10.964Z,99.90
2024-04-08T23:05:43.316Z,99.90
2024-04-08T23:08:15.330Z,99.90
2024-04-08T23:10:47.267Z,99.90
2024-04-08T23:13:19.185Z,99.90
2024-04-08T23:15:51.179Z,99.90
2024-04-08T23:18:23.267Z,99.90
2024-04-08T23:20:55.285Z,99.90
2024-04-08T23:23:29.348Z,99.90
2024-04-08T23:26:02.372Z,99.90
2024-04-08T23:28:34.367Z,99.90
2024-04-08T23:31:06.674Z,99.90
2024-04-08T23:33:38.835Z,99.90
2024-04-08T23:36:11.312Z,99.90
2024-04-08T23:38:43.306Z,99.90
2024-04-08T23:41:15.560Z,99.90
2024-04-08T23:43:48.043Z,99.90
2024-04-08T23:46:20.085Z,99.90
2024-04-08T23:48:52.101Z,99.90
2024-04-08T23:51:24.140Z,99.90
2024-04-08T23:53:59.005Z,99.90
2024-04-08T23:56:30.984Z,99.90
2024-04-08T23:59:02.978Z,99.90
